sensor_id;sensor_type;location;lat;lon;timestamp;pressure;altitude;pressure_sealevel;temperature;humidity
70011;BME280;59543;37.950;-122.338;2023-07-31T00:00:49;101299.34;;;21.74;56.88
70011;BME280;59543;37.950;-122.338;2023-07-31T00:03:15;101295.56;;;22.08;57.33
70011;BME280;59543;37.950;-122.338;2023-07-31T00:05:41;101295.56;;;22.34;56.65
70011;BME280;59543;37.950;-122.338;2023-07-31T00:08:08;101297.00;;;21.44;57.55
70011;BME280;59543;37.950;-122.338;2023-07-31T00:10:34;101290.50;;;21.58;58.19
70011;BME280;59543;37.950;-122.338;2023-07-31T00:13:00;101282.94;;;21.80;57.74
70011;BME280;59543;37.950;-122.338;2023-07-31T00:15:27;101285.63;;;21.40;57.76
70011;BME280;59543;37.950;-122.338;2023-07-31T00:17:53;101291.31;;;21.45;58.15
70011;BME280;59543;37.950;-122.338;2023-07-31T00:20:20;101282.34;;;21.10;60.05
70011;BME280;59543;37.950;-122.338;2023-07-31T00:22:47;101288.72;;;21.24;59.47
70011;BME280;59543;37.950;-122.338;2023-07-31T00:25:13;101272.41;;;21.02;60.15
70011;BME280;59543;37.950;-122.338;2023-07-31T00:27:39;101270.22;;;20.78;59.87
70011;BME280;59543;37.950;-122.338;2023-07-31T00:30:10;101280.47;;;21.17;60.91
70011;BME280;59543;37.950;-122.338;2023-07-31T00:32:36;101265.13;;;21.23;59.68
70011;BME280;59543;37.950;-122.338;2023-07-31T00:35:03;101275.34;;;20.94;60.45
70011;BME280;59543;37.950;-122.338;2023-07-31T00:37:29;101270.22;;;20.78;61.42
70011;BME280;59543;37.950;-122.338;2023-07-31T00:39:56;101266.94;;;20.54;62.38
70011;BME280;59543;37.950;-122.338;2023-07-31T00:42:22;101265.16;;;20.75;62.51
70011;BME280;59543;37.950;-122.338;2023-07-31T00:44:48;101260.66;;;20.54;63.72
70011;BME280;59543;37.950;-122.338;2023-07-31T00:47:15;101249.94;;;20.52;63.33
70011;BME280;59543;37.950;-122.338;2023-07-31T00:49:41;101265.19;;;20.12;64.05
70011;BME280;59543;37.950;-122.338;2023-07-31T00:52:09;101258.75;;;19.92;64.60
70011;BME280;59543;37.950;-122.338;2023-07-31T00:54:36;101258.63;;;19.35;67.31
70011;BME280;59543;37.950;-122.338;2023-07-31T00:57:03;101250.56;;;19.49;67.06
70011;BME280;59543;37.950;-122.338;2023-07-31T00:59:29;101250.03;;;19.17;68.40
70011;BME280;59543;37.950;-122.338;2023-07-31T01:01:55;101257.94;;;19.12;68.62
70011;BME280;59543;37.950;-122.338;2023-07-31T01:04:22;101256.59;;;19.23;69.12
70011;BME280;59543;37.950;-122.338;2023-07-31T01:10:03;101266.47;;;18.72;70.08
70011;BME280;59543;37.950;-122.338;2023-07-31T01:12:31;101259.91;;;18.82;69.78
70011;BME280;59543;37.950;-122.338;2023-07-31T01:15:08;101262.53;;;18.90;69.49
70011;BME280;59543;37.950;-122.338;2023-07-31T01:17:37;101263.75;;;18.87;70.21
70011;BME280;59543;37.950;-122.338;2023-07-31T01:20:12;101265.13;;;18.83;69.86
70011;BME280;59543;37.950;-122.338;2023-07-31T01:31:23;101262.53;;;18.75;69.42
70011;BME280;59543;37.950;-122.338;2023-07-31T01:33:52;101265.41;;;18.88;68.44
70011;BME280;59543;37.950;-122.338;2023-07-31T01:36:20;101268.22;;;19.31;67.79
70011;BME280;59543;37.950;-122.338;2023-07-31T01:38:46;101271.94;;;19.45;67.05
70011;BME280;59543;37.950;-122.338;2023-07-31T01:41:12;101270.03;;;18.88;68.11
70011;BME280;59543;37.950;-122.338;2023-07-31T01:43:39;101266.78;;;18.78;68.72
70011;BME280;59543;37.950;-122.338;2023-07-31T01:46:05;101273.22;;;18.91;67.57
70011;BME280;59543;37.950;-122.338;2023-07-31T01:48:31;101271.44;;;18.69;68.22
70011;BME280;59543;37.950;-122.338;2023-07-31T01:51:01;101269.97;;;18.81;68.28
70011;BME280;59543;37.950;-122.338;2023-07-31T01:53:30;101266.47;;;18.72;68.37
70011;BME280;59543;37.950;-122.338;2023-07-31T01:55:56;101265.91;;;18.33;69.89
70011;BME280;59543;37.950;-122.338;2023-07-31T01:58:22;101273.97;;;18.41;70.34
70011;BME280;59543;37.950;-122.338;2023-07-31T02:00:49;101272.75;;;18.43;69.90
70011;BME280;59543;37.950;-122.338;2023-07-31T02:03:15;101275.69;;;18.42;69.68
70011;BME280;59543;37.950;-122.338;2023-07-31T02:05:48;101280.44;;;18.25;69.65
70011;BME280;59543;37.950;-122.338;2023-07-31T02:08:15;101279.41;;;18.11;71.06
70011;BME280;59543;37.950;-122.338;2023-07-31T02:10:41;101273.94;;;17.96;71.53
70011;BME280;59543;37.950;-122.338;2023-07-31T02:13:08;101285.78;;;18.03;71.19
70011;BME280;59543;37.950;-122.338;2023-07-31T02:15:34;101277.31;;;17.98;70.82
70011;BME280;59543;37.950;-122.338;2023-07-31T02:18:01;101278.16;;;17.99;71.33
70011;BME280;59543;37.950;-122.338;2023-07-31T02:20:27;101281.72;;;17.85;72.44
70011;BME280;59543;37.950;-122.338;2023-07-31T02:22:53;101291.78;;;17.53;73.18
70011;BME280;59543;37.950;-122.338;2023-07-31T02:25:20;101285.75;;;17.89;72.40
70011;BME280;59543;37.950;-122.338;2023-07-31T02:27:46;101292.56;;;18.22;70.65
70011;BME280;59543;37.950;-122.338;2023-07-31T02:30:12;101287.22;;;18.29;69.93
70011;BME280;59543;37.950;-122.338;2023-07-31T02:32:39;101284.84;;;18.26;69.64
70011;BME280;59543;37.950;-122.338;2023-07-31T02:35:05;101300.44;;;18.02;70.94
70011;BME280;59543;37.950;-122.338;2023-07-31T02:37:32;101300.84;;;17.68;72.35
70011;BME280;59543;37.950;-122.338;2023-07-31T02:39:58;101310.66;;;17.77;71.55
70011;BME280;59543;37.950;-122.338;2023-07-31T02:42:24;101310.41;;;17.64;72.19
70011;BME280;59543;37.950;-122.338;2023-07-31T02:44:51;101303.13;;;17.56;72.20
70011;BME280;59543;37.950;-122.338;2023-07-31T02:47:22;101307.13;;;17.14;74.22
70011;BME280;59543;37.950;-122.338;2023-07-31T02:49:48;101318.78;;;17.00;74.62
70011;BME280;59543;37.950;-122.338;2023-07-31T02:52:15;101320.44;;;16.62;76.83
70011;BME280;59543;37.950;-122.338;2023-07-31T02:54:41;101306.22;;;16.43;78.20
70011;BME280;59543;37.950;-122.338;2023-07-31T02:57:07;101303.72;;;16.26;78.96
70011;BME280;59543;37.950;-122.338;2023-07-31T02:59:33;101311.88;;;16.17;79.85
70011;BME280;59543;37.950;-122.338;2023-07-31T03:02:00;101307.66;;;15.90;81.21
70011;BME280;59543;37.950;-122.338;2023-07-31T03:04:26;101308.50;;;15.83;82.16
70011;BME280;59543;37.950;-122.338;2023-07-31T03:06:53;101310.81;;;15.61;83.46
70011;BME280;59543;37.950;-122.338;2023-07-31T03:09:19;101323.53;;;15.44;84.62
70011;BME280;59543;37.950;-122.338;2023-07-31T03:11:45;101328.31;;;15.59;84.16
70011;BME280;59543;37.950;-122.338;2023-07-31T03:14:12;101325.72;;;15.41;85.18
70011;BME280;59543;37.950;-122.338;2023-07-31T03:16:38;101324.16;;;15.30;86.19
70011;BME280;59543;37.950;-122.338;2023-07-31T03:19:04;101325.34;;;15.27;86.89
70011;BME280;59543;37.950;-122.338;2023-07-31T03:21:31;101325.81;;;15.15;87.48
70011;BME280;59543;37.950;-122.338;2023-07-31T03:23:57;101320.69;;;15.03;88.30
70011;BME280;59543;37.950;-122.338;2023-07-31T03:26:23;101316.44;;;15.01;88.85
70011;BME280;59543;37.950;-122.338;2023-07-31T03:28:49;101318.91;;;14.78;90.19
70011;BME280;59543;37.950;-122.338;2023-07-31T03:31:15;101324.81;;;14.73;90.87
70011;BME280;59543;37.950;-122.338;2023-07-31T03:33:42;101316.59;;;14.57;92.29
70011;BME280;59543;37.950;-122.338;2023-07-31T03:36:08;101321.19;;;14.56;92.48
70011;BME280;59543;37.950;-122.338;2023-07-31T03:38:34;101321.41;;;14.45;93.62
70011;BME280;59543;37.950;-122.338;2023-07-31T03:41:01;101310.72;;;14.44;93.87
70011;BME280;59543;37.950;-122.338;2023-07-31T03:43:28;101316.00;;;14.45;94.01
70011;BME280;59543;37.950;-122.338;2023-07-31T03:45:54;101319.41;;;14.47;94.00
70011;BME280;59543;37.950;-122.338;2023-07-31T03:48:20;101316.47;;;14.40;94.82
70011;BME280;59543;37.950;-122.338;2023-07-31T03:50:46;101306.13;;;14.36;94.88
70011;BME280;59543;37.950;-122.338;2023-07-31T03:53:13;101320.44;;;14.28;95.95
70011;BME280;59543;37.950;-122.338;2023-07-31T03:55:39;101315.75;;;14.30;96.12
70011;BME280;59543;37.950;-122.338;2023-07-31T03:58:05;101308.72;;;14.19;96.60
70011;BME280;59543;37.950;-122.338;2023-07-31T04:00:31;101310.75;;;14.17;96.89
70011;BME280;59543;37.950;-122.338;2023-07-31T04:02:58;101307.72;;;14.21;96.40
70011;BME280;59543;37.950;-122.338;2023-07-31T04:05:24;101309.59;;;14.20;96.88
70011;BME280;59543;37.950;-122.338;2023-07-31T04:07:50;101307.78;;;14.03;97.85
70011;BME280;59543;37.950;-122.338;2023-07-31T04:10:17;101307.78;;;14.03;98.05
70011;BME280;59543;37.950;-122.338;2023-07-31T04:12:43;101316.34;;;13.98;98.46
70011;BME280;59543;37.950;-122.338;2023-07-31T04:15:09;101315.75;;;13.86;98.99
70011;BME280;59543;37.950;-122.338;2023-07-31T04:17:36;101311.03;;;13.88;99.27
70011;BME280;59543;37.950;-122.338;2023-07-31T04:20:02;101320.41;;;13.76;99.63
70011;BME280;59543;37.950;-122.338;2023-07-31T04:22:28;101323.84;;;13.86;99.30
70011;BME280;59543;37.950;-122.338;2023-07-31T04:24:55;101325.47;;;13.97;98.37
70011;BME280;59543;37.950;-122.338;2023-07-31T04:27:21;101321.22;;;13.94;98.74
70011;BME280;59543;37.950;-122.338;2023-07-31T04:29:47;101326.19;;;13.81;99.84
70011;BME280;59543;37.950;-122.338;2023-07-31T04:32:13;101326.41;;;13.88;99.12
70011;BME280;59543;37.950;-122.338;2023-07-31T04:34:42;101330.41;;;13.84;99.27
70011;BME280;59543;37.950;-122.338;2023-07-31T04:37:09;101335.59;;;13.77;99.71
70011;BME280;59543;37.950;-122.338;2023-07-31T04:39:35;101336.75;;;13.92;98.77
70011;BME280;59543;37.950;-122.338;2023-07-31T04:42:02;101334.69;;;13.86;99.32
70011;BME280;59543;37.950;-122.338;2023-07-31T04:44:28;101339.41;;;13.84;99.54
70011;BME280;59543;37.950;-122.338;2023-07-31T04:46:54;101331.03;;;13.95;98.90
70011;BME280;59543;37.950;-122.338;2023-07-31T04:49:20;101335.31;;;13.80;99.70
70011;BME280;59543;37.950;-122.338;2023-07-31T04:51:47;101325.09;;;13.92;99.34
70011;BME280;59543;37.950;-122.338;2023-07-31T04:54:14;101338.63;;;13.92;99.44
70011;BME280;59543;37.950;-122.338;2023-07-31T04:56:43;101332.44;;;14.00;98.85
70011;BME280;59543;37.950;-122.338;2023-07-31T04:59:09;101345.19;;;13.89;99.45
70011;BME280;59543;37.950;-122.338;2023-07-31T05:01:35;101340.78;;;13.88;99.38
70011;BME280;59543;37.950;-122.338;2023-07-31T05:04:01;101338.09;;;13.88;99.68
70011;BME280;59543;37.950;-122.338;2023-07-31T05:06:28;101337.78;;;13.91;99.59
70011;BME280;59543;37.950;-122.338;2023-07-31T05:08:54;101330.97;;;14.05;98.58
70011;BME280;59543;37.950;-122.338;2023-07-31T05:11:20;101331.19;;;13.94;99.32
70011;BME280;59543;37.950;-122.338;2023-07-31T05:13:47;101338.16;;;13.97;99.43
70011;BME280;59543;37.950;-122.338;2023-07-31T05:16:13;101332.25;;;14.01;98.85
70011;BME280;59543;37.950;-122.338;2023-07-31T05:18:40;101333.28;;;14.00;98.63
70011;BME280;59543;37.950;-122.338;2023-07-31T05:21:06;101345.13;;;13.99;98.94
70011;BME280;59543;37.950;-122.338;2023-07-31T05:23:32;101340.56;;;14.00;99.11
70011;BME280;59543;37.950;-122.338;2023-07-31T05:26:05;101339.84;;;13.98;98.67
70011;BME280;59543;37.950;-122.338;2023-07-31T05:28:34;101332.22;;;13.93;99.55
70011;BME280;59543;37.950;-122.338;2023-07-31T05:31:04;101336.41;;;13.87;99.98
70011;BME280;59543;37.950;-122.338;2023-07-31T05:33:31;101330.66;;;13.90;99.59
70011;BME280;59543;37.950;-122.338;2023-07-31T05:35:57;101332.59;;;13.80;100.00
70011;BME280;59543;37.950;-122.338;2023-07-31T05:38:23;101331.03;;;13.78;100.00
70011;BME280;59543;37.950;-122.338;2023-07-31T05:40:50;101332.84;;;13.69;100.00
70011;BME280;59543;37.950;-122.338;2023-07-31T05:43:16;101328.75;;;13.65;100.00
70011;BME280;59543;37.950;-122.338;2023-07-31T05:45:42;101342.56;;;13.62;100.00
70011;BME280;59543;37.950;-122.338;2023-07-31T05:48:09;101341.50;;;13.55;100.00
70011;BME280;59543;37.950;-122.338;2023-07-31T05:50:35;101333.75;;;13.60;100.00
70011;BME280;59543;37.950;-122.338;2023-07-31T05:53:02;101340.66;;;13.54;100.00
70011;BME280;59543;37.950;-122.338;2023-07-31T05:55:29;101331.00;;;13.52;100.00
70011;BME280;59543;37.950;-122.338;2023-07-31T05:57:55;101331.22;;;13.40;100.00
70011;BME280;59543;37.950;-122.338;2023-07-31T06:00:21;101348.28;;;13.41;100.00
70011;BME280;59543;37.950;-122.338;2023-07-31T06:02:48;101338.59;;;13.38;100.00
70011;BME280;59543;37.950;-122.338;2023-07-31T06:05:14;101352.34;;;13.27;100.00
70011;BME280;59543;37.950;-122.338;2023-07-31T06:07:41;101350.66;;;13.16;100.00
70011;BME280;59543;37.950;-122.338;2023-07-31T06:10:07;101348.94;;;13.25;100.00
70011;BME280;59543;37.950;-122.338;2023-07-31T06:12:34;101348.38;;;13.21;100.00
70011;BME280;59543;37.950;-122.338;2023-07-31T06:15:02;101357.16;;;13.23;100.00
70011;BME280;59543;37.950;-122.338;2023-07-31T06:17:28;101372.53;;;13.23;100.00
70011;BME280;59543;37.950;-122.338;2023-07-31T06:19:56;101362.19;;;13.18;100.00
70011;BME280;59543;37.950;-122.338;2023-07-31T06:22:23;101362.72;;;13.22;100.00
70011;BME280;59543;37.950;-122.338;2023-07-31T06:24:49;101367.84;;;13.25;100.00
70011;BME280;59543;37.950;-122.338;2023-07-31T06:27:15;101351.03;;;13.31;100.00
70011;BME280;59543;37.950;-122.338;2023-07-31T06:29:42;101355.19;;;13.25;100.00
70011;BME280;59543;37.950;-122.338;2023-07-31T06:32:08;101359.28;;;13.30;100.00
70011;BME280;59543;37.950;-122.338;2023-07-31T06:34:35;101354.59;;;13.32;100.00
70011;BME280;59543;37.950;-122.338;2023-07-31T06:37:01;101359.59;;;13.26;100.00
70011;BME280;59543;37.950;-122.338;2023-07-31T06:39:27;101359.06;;;13.41;100.00
70011;BME280;59543;37.950;-122.338;2023-07-31T06:41:53;101350.13;;;13.40;100.00
70011;BME280;59543;37.950;-122.338;2023-07-31T06:44:19;101349.59;;;13.37;100.00
70011;BME280;59543;37.950;-122.338;2023-07-31T06:46:46;101346.88;;;13.37;100.00
70011;BME280;59543;37.950;-122.338;2023-07-31T06:49:12;101353.13;;;13.37;100.00
70011;BME280;59543;37.950;-122.338;2023-07-31T06:51:41;101346.66;;;13.20;100.00
70011;BME280;59543;37.950;-122.338;2023-07-31T06:54:08;101353.53;;;13.15;100.00
70011;BME280;59543;37.950;-122.338;2023-07-31T06:56:34;101343.41;;;13.17;100.00
70011;BME280;59543;37.950;-122.338;2023-07-31T06:59:01;101348.69;;;13.18;100.00
70011;BME280;59543;37.950;-122.338;2023-07-31T07:01:27;101343.72;;;13.14;100.00
70011;BME280;59543;37.950;-122.338;2023-07-31T07:03:54;101336.94;;;13.10;100.00
70011;BME280;59543;37.950;-122.338;2023-07-31T07:06:22;101331.63;;;13.18;100.00
70011;BME280;59543;37.950;-122.338;2023-07-31T07:08:48;101324.75;;;13.23;100.00
70011;BME280;59543;37.950;-122.338;2023-07-31T07:11:15;101333.13;;;13.30;100.00
70011;BME280;59543;37.950;-122.338;2023-07-31T07:13:41;101337.00;;;13.27;100.00
70011;BME280;59543;37.950;-122.338;2023-07-31T07:16:07;101336.16;;;13.27;100.00
70011;BME280;59543;37.950;-122.338;2023-07-31T07:18:33;101328.03;;;13.17;100.00
70011;BME280;59543;37.950;-122.338;2023-07-31T07:21:00;101329.16;;;13.24;100.00
70011;BME280;59543;37.950;-122.338;2023-07-31T07:23:28;101324.47;;;13.26;100.00
70011;BME280;59543;37.950;-122.338;2023-07-31T07:25:54;101329.72;;;13.28;100.00
70011;BME280;59543;37.950;-122.338;2023-07-31T07:28:20;101324.88;;;13.32;100.00
70011;BME280;59543;37.950;-122.338;2023-07-31T07:30:53;101330.28;;;13.32;100.00
70011;BME280;59543;37.950;-122.338;2023-07-31T07:33:20;101339.22;;;13.32;100.00
70011;BME280;59543;37.950;-122.338;2023-07-31T07:35:46;101330.50;;;13.38;100.00
70011;BME280;59543;37.950;-122.338;2023-07-31T07:38:14;101321.78;;;13.44;100.00
70011;BME280;59543;37.950;-122.338;2023-07-31T07:40:41;101330.91;;;13.43;100.00
70011;BME280;59543;37.950;-122.338;2023-07-31T07:43:08;101330.19;;;13.41;100.00
70011;BME280;59543;37.950;-122.338;2023-07-31T07:45:34;101337.00;;;13.45;100.00
70011;BME280;59543;37.950;-122.338;2023-07-31T07:48:00;101330.28;;;13.49;100.00
70011;BME280;59543;37.950;-122.338;2023-07-31T07:50:26;101334.97;;;13.47;100.00
70011;BME280;59543;37.950;-122.338;2023-07-31T07:52:52;101336.63;;;13.58;100.00
70011;BME280;59543;37.950;-122.338;2023-07-31T07:55:19;101334.84;;;13.49;100.00
70011;BME280;59543;37.950;-122.338;2023-07-31T07:57:45;101329.28;;;13.50;100.00
70011;BME280;59543;37.950;-122.338;2023-07-31T08:00:13;101329.88;;;13.44;100.00
70011;BME280;59543;37.950;-122.338;2023-07-31T08:02:39;101326.50;;;13.42;100.00
70011;BME280;59543;37.950;-122.338;2023-07-31T08:05:05;101331.59;;;13.45;100.00
70011;BME280;59543;37.950;-122.338;2023-07-31T08:07:32;101326.75;;;13.49;100.00
70011;BME280;59543;37.950;-122.338;2023-07-31T08:09:58;101321.56;;;13.56;100.00
70011;BME280;59543;37.950;-122.338;2023-07-31T08:12:24;101324.44;;;13.54;100.00
70011;BME280;59543;37.950;-122.338;2023-07-31T08:14:50;101328.34;;;13.60;100.00
70011;BME280;59543;37.950;-122.338;2023-07-31T08:17:17;101328.81;;;13.55;100.00
70011;BME280;59543;37.950;-122.338;2023-07-31T08:19:44;101322.72;;;13.53;100.00
70011;BME280;59543;37.950;-122.338;2023-07-31T08:22:10;101323.56;;;13.54;100.00
70011;BME280;59543;37.950;-122.338;2023-07-31T08:24:37;101323.72;;;13.52;100.00
70011;BME280;59543;37.950;-122.338;2023-07-31T08:27:03;101328.28;;;13.52;100.00
70011;BME280;59543;37.950;-122.338;2023-07-31T08:29:29;101328.97;;;13.54;100.00
70011;BME280;59543;37.950;-122.338;2023-07-31T08:31:55;101319.03;;;13.54;100.00
70011;BME280;59543;37.950;-122.338;2023-07-31T08:34:22;101312.75;;;13.54;100.00
70011;BME280;59543;37.950;-122.338;2023-07-31T08:36:48;101320.53;;;13.57;100.00
70011;BME280;59543;37.950;-122.338;2023-07-31T08:39:14;101322.19;;;13.49;100.00
70011;BME280;59543;37.950;-122.338;2023-07-31T08:41:40;101319.16;;;13.53;100.00
70011;BME280;59543;37.950;-122.338;2023-07-31T08:44:07;101307.72;;;13.59;100.00
70011;BME280;59543;37.950;-122.338;2023-07-31T08:46:34;101309.59;;;13.58;100.00
70011;BME280;59543;37.950;-122.338;2023-07-31T08:49:04;101306.34;;;13.55;100.00
70011;BME280;59543;37.950;-122.338;2023-07-31T08:51:34;101305.56;;;13.44;100.00
70011;BME280;59543;37.950;-122.338;2023-07-31T08:54:01;101301.41;;;13.50;100.00
70011;BME280;59543;37.950;-122.338;2023-07-31T08:56:31;101296.84;;;13.50;100.00
70011;BME280;59543;37.950;-122.338;2023-07-31T08:58:59;101293.91;;;13.62;100.00
70011;BME280;59543;37.950;-122.338;2023-07-31T09:01:30;101292.63;;;13.66;100.00
70011;BME280;59543;37.950;-122.338;2023-07-31T09:03:59;101285.66;;;13.63;100.00
70011;BME280;59543;37.950;-122.338;2023-07-31T09:06:28;101280.94;;;13.65;100.00
70011;BME280;59543;37.950;-122.338;2023-07-31T09:08:56;101274.66;;;13.65;100.00
70011;BME280;59543;37.950;-122.338;2023-07-31T09:11:24;101280.63;;;13.68;100.00
70011;BME280;59543;37.950;-122.338;2023-07-31T09:13:52;101282.69;;;13.75;100.00
70011;BME280;59543;37.950;-122.338;2023-07-31T09:16:18;101283.25;;;13.78;100.00
70011;BME280;59543;37.950;-122.338;2023-07-31T09:18:54;101278.63;;;13.70;100.00
70011;BME280;59543;37.950;-122.338;2023-07-31T09:21:23;101277.91;;;13.68;100.00
70011;BME280;59543;37.950;-122.338;2023-07-31T09:23:50;101274.88;;;13.71;100.00
70011;BME280;59543;37.950;-122.338;2023-07-31T09:26:38;101279.22;;;13.82;100.00
70011;BME280;59543;37.950;-122.338;2023-07-31T09:29:06;101272.50;;;13.68;100.00
70011;BME280;59543;37.950;-122.338;2023-07-31T09:31:43;101266.78;;;13.71;100.00
70011;BME280;59543;37.950;-122.338;2023-07-31T09:34:11;101275.44;;;13.75;100.00
70011;BME280;59543;37.950;-122.338;2023-07-31T09:39:12;101270.72;;;13.77;100.00
70011;BME280;59543;37.950;-122.338;2023-07-31T09:41:41;101272.13;;;13.81;100.00
70011;BME280;59543;37.950;-122.338;2023-07-31T09:44:08;101274.75;;;13.73;100.00
70011;BME280;59543;37.950;-122.338;2023-07-31T09:46:38;101267.66;;;13.72;100.00
70011;BME280;59543;37.950;-122.338;2023-07-31T09:49:11;101271.03;;;13.74;100.00
70011;BME280;59543;37.950;-122.338;2023-07-31T09:51:39;101276.22;;;13.67;100.00
70011;BME280;59543;37.950;-122.338;2023-07-31T09:54:10;101277.25;;;13.66;100.00
70011;BME280;59543;37.950;-122.338;2023-07-31T09:56:47;101277.38;;;13.65;100.00
70011;BME280;59543;37.950;-122.338;2023-07-31T09:59:19;101273.00;;;13.64;100.00
70011;BME280;59543;37.950;-122.338;2023-07-31T10:01:46;101271.84;;;13.66;100.00
70011;BME280;59543;37.950;-122.338;2023-07-31T10:04:13;101276.09;;;13.69;100.00
70011;BME280;59543;37.950;-122.338;2023-07-31T10:06:42;101275.22;;;13.68;100.00
70011;BME280;59543;37.950;-122.338;2023-07-31T10:09:11;101276.91;;;13.69;100.00
70011;BME280;59543;37.950;-122.338;2023-07-31T10:11:41;101271.88;;;13.75;100.00
70011;BME280;59543;37.950;-122.338;2023-07-31T10:14:10;101268.59;;;13.63;100.00
70011;BME280;59543;37.950;-122.338;2023-07-31T10:16:38;101272.03;;;13.73;100.00
70011;BME280;59543;37.950;-122.338;2023-07-31T10:19:06;101274.88;;;13.71;100.00
70011;BME280;59543;37.950;-122.338;2023-07-31T10:21:34;101279.94;;;13.66;100.00
70011;BME280;59543;37.950;-122.338;2023-07-31T10:24:05;101286.09;;;13.77;100.00
70011;BME280;59543;37.950;-122.338;2023-07-31T10:26:32;101277.84;;;13.78;100.00
70011;BME280;59543;37.950;-122.338;2023-07-31T10:29:01;101282.34;;;13.69;100.00
70011;BME280;59543;37.950;-122.338;2023-07-31T10:31:30;101280.53;;;13.78;100.00
70011;BME280;59543;37.950;-122.338;2023-07-31T10:33:58;101278.59;;;13.88;100.00
70011;BME280;59543;37.950;-122.338;2023-07-31T10:36:28;101281.84;;;13.74;100.00
70011;BME280;59543;37.950;-122.338;2023-07-31T10:38:56;101289.50;;;13.61;100.00
70011;BME280;59543;37.950;-122.338;2023-07-31T10:41:31;101283.31;;;13.68;100.00
70011;BME280;59543;37.950;-122.338;2023-07-31T10:44:01;101293.38;;;13.58;100.00
70011;BME280;59543;37.950;-122.338;2023-07-31T10:46:28;101288.50;;;13.62;100.00
70011;BME280;59543;37.950;-122.338;2023-07-31T10:49:00;101299.41;;;13.52;100.00
70011;BME280;59543;37.950;-122.338;2023-07-31T10:51:36;101289.44;;;13.53;100.00
70011;BME280;59543;37.950;-122.338;2023-07-31T10:54:12;101283.88;;;13.54;100.00
70011;BME280;59543;37.950;-122.338;2023-07-31T10:56:39;101286.03;;;13.50;100.00
70011;BME280;59543;37.950;-122.338;2023-07-31T10:59:06;101291.22;;;13.62;100.00
70011;BME280;59543;37.950;-122.338;2023-07-31T11:01:52;101283.88;;;13.54;100.00
70011;BME280;59543;37.950;-122.338;2023-07-31T11:04:25;101281.19;;;13.54;100.00
70011;BME280;59543;37.950;-122.338;2023-07-31T11:07:02;101277.06;;;13.50;100.00
70011;BME280;59543;37.950;-122.338;2023-07-31T11:09:32;101287.44;;;13.55;100.00
70011;BME280;59543;37.950;-122.338;2023-07-31T11:11:59;101280.56;;;13.60;100.00
70011;BME280;59543;37.950;-122.338;2023-07-31T11:14:26;101270.44;;;13.44;100.00
70011;BME280;59543;37.950;-122.338;2023-07-31T11:16:52;101270.13;;;13.47;100.00
70011;BME280;59543;37.950;-122.338;2023-07-31T11:19:22;101272.16;;;13.45;100.00
70011;BME280;59543;37.950;-122.338;2023-07-31T11:21:50;101265.41;;;13.49;100.00
70011;BME280;59543;37.950;-122.338;2023-07-31T11:24:17;101270.44;;;13.44;100.00
70011;BME280;59543;37.950;-122.338;2023-07-31T11:26:52;101277.06;;;13.50;100.00
70011;BME280;59543;37.950;-122.338;2023-07-31T11:29:19;101264.56;;;13.49;100.00
70011;BME280;59543;37.950;-122.338;2023-07-31T11:31:47;101264.50;;;13.41;100.00
70011;BME280;59543;37.950;-122.338;2023-07-31T11:34:14;101271.97;;;13.47;100.00
70011;BME280;59543;37.950;-122.338;2023-07-31T11:36:53;101266.25;;;13.50;100.00
70011;BME280;59543;37.950;-122.338;2023-07-31T11:39:20;101275.38;;;13.49;100.00
70011;BME280;59543;37.950;-122.338;2023-07-31T11:41:46;101275.69;;;13.46;100.00
70011;BME280;59543;37.950;-122.338;2023-07-31T11:44:12;101270.06;;;13.39;100.00
70011;BME280;59543;37.950;-122.338;2023-07-31T11:46:39;101270.69;;;13.33;100.00
70011;BME280;59543;37.950;-122.338;2023-07-31T11:49:05;101262.31;;;13.26;100.00
70011;BME280;59543;37.950;-122.338;2023-07-31T11:51:32;101260.50;;;13.17;100.00
70011;BME280;59543;37.950;-122.338;2023-07-31T11:54:00;101267.16;;;13.23;100.00
70011;BME280;59543;37.950;-122.338;2023-07-31T11:56:27;101260.91;;;13.22;100.00
70011;BME280;59543;37.950;-122.338;2023-07-31T11:58:58;101265.69;;;13.11;100.00
70011;BME280;59543;37.950;-122.338;2023-07-31T12:01:26;101272.34;;;13.16;100.00
70011;BME280;59543;37.950;-122.338;2023-07-31T12:03:54;101274.03;;;13.17;100.00
70011;BME280;59543;37.950;-122.338;2023-07-31T12:06:21;101264.09;;;13.18;100.00
70011;BME280;59543;37.950;-122.338;2023-07-31T12:08:47;101270.28;;;13.28;100.00
70011;BME280;59543;37.950;-122.338;2023-07-31T12:11:14;101278.56;;;13.17;100.00
70011;BME280;59543;37.950;-122.338;2023-07-31T12:13:43;101278.13;;;13.21;100.00
70011;BME280;59543;37.950;-122.338;2023-07-31T12:16:09;101285.19;;;13.32;100.00
70011;BME280;59543;37.950;-122.338;2023-07-31T12:18:37;101275.53;;;13.30;100.00
70011;BME280;59543;37.950;-122.338;2023-07-31T12:21:08;101277.78;;;13.34;100.00
70011;BME280;59543;37.950;-122.338;2023-07-31T12:23:37;101278.78;;;13.33;100.00
70011;BME280;59543;37.950;-122.338;2023-07-31T12:28:43;101276.31;;;13.40;100.00
70011;BME280;59543;37.950;-122.338;2023-07-31T12:31:13;101285.50;;;13.47;100.00
70011;BME280;59543;37.950;-122.338;2023-07-31T12:33:41;101285.28;;;13.58;100.00